Baie St.paul — CFN6120 — position and weather

sailwx.info

Track history (hours):
 
Tides and Currents Weather Stations Pressure Air Temp Water Temp Dewpoint Dewpoint Depression Visibility Wind Speed Wind Dir Waves Ship Positions

Baie St.paul

Last reported at 2018-Apr-17 20:53 UTC. Time now 2018-Apr-19 11:51 UTC.
Position N 45°32' W 083°22'.

Length 225 m; draft 8.1 m.

Type: Cargo ship. MMSI: 316022391.

Date/timePositionNaut miles runAvg speedWind from/ knotsBaromVisibWave heightAir tempDewpointWater temp
2018-Apr-17 20:53N 45°32' W 083°22'612.5
2018-Apr-17 20:26N 45°36' W 083°28'612.5
2018-Apr-17 19:58N 45°41' W 083°33'  
2018-Apr-14 04:33N 46°58' W 091°37'1 6.7
2018-Apr-14 04:25N 46°58' W 091°38'3 7.4
2018-Apr-14 04:00N 46°56' W 091°42'4 8.1
2018-Apr-14 03:30N 46°53' W 091°46'4 8.0
2018-Apr-14 03:00N 46°50' W 091°50'4 7.9
2018-Apr-14 02:30N 46°47' W 091°54'4 7.4
2018-Apr-14 02:00N 46°44' W 091°58'3 6.3
2018-Apr-14 01:29N 46°42' W 092°01'0 0.6
2018-Apr-14 00:56N 46°42' W 092°01'0 0.0
2018-Apr-14 00:29N 46°42' W 092°01'0 0.0
2018-Apr-13 23:59N 46°42' W 092°01'0 0.0
2018-Apr-13 23:29N 46°42' W 092°01'0 0.0
2018-Apr-13 22:59N 46°42' W 092°01'0 0.0
2018-Apr-13 22:29N 46°42' W 092°01'0 0.0
2018-Apr-13 21:56N 46°42' W 092°01'0 0.0
2018-Apr-13 21:26N 46°42' W 092°01'0 0.0
2018-Apr-13 20:56N 46°42' W 092°01'0 0.0
2018-Apr-13 20:29N 46°42' W 092°01'0 0.0
2018-Apr-13 19:53N 46°42' W 092°01'0 0.0
2018-Apr-13 19:26N 46°42' W 092°01'0 0.0
2018-Apr-13 18:53N 46°42' W 092°01'0 0.0
2018-Apr-13 18:20N 46°42' W 092°01'0 0.0
2018-Apr-13 17:53N 46°42' W 092°01'0 0.0
2018-Apr-13 17:20N 46°42' W 092°01'0 0.0
2018-Apr-13 16:56N 46°42' W 092°01'0 0.0
2018-Apr-13 16:26N 46°42' W 092°01'0 0.0
2018-Apr-13 15:56N 46°42' W 092°01'0 0.0
2018-Apr-13 15:20N 46°42' W 092°01'0 0.0
2018-Apr-13 14:59N 46°42' W 092°01'0 0.8
2018-Apr-13 14:27N 46°42' W 092°01'2 4.1
2018-Apr-13 14:00N 46°43' W 091°59'0 0.6
2018-Apr-13 13:23N 46°43' W 091°59'0 0.0
2018-Apr-13 12:53N 46°43' W 091°59'0 0.0
2018-Apr-13 12:23N 46°43' W 091°59'0 0.0
2018-Apr-13 11:56N 46°43' W 091°59'0 0.0
2018-Apr-13 11:26N 46°43' W 091°59'0 0.0
2018-Apr-13 10:56N 46°43' W 091°59'0 0.1
2018-Apr-13 10:26N 46°43' W 091°58'0 0.0
2018-Apr-13 09:56N 46°43' W 091°58'0 0.1
2018-Apr-13 09:26N 46°43' W 091°58'0 0.0
2018-Apr-13 08:59N 46°43' W 091°58'0 0.1
2018-Apr-13 08:26N 46°43' W 091°58'0 0.1
2018-Apr-13 07:56N 46°43' W 091°59'0 0.2
2018-Apr-13 07:29N 46°43' W 091°58'0 0.4
2018-Apr-13 06:59N 46°43' W 091°58'0 0.3
2018-Apr-13 06:29N 46°43' W 091°58'0 0.1
2018-Apr-13 06:00N 46°43' W 091°58'0 0.1
2018-Apr-13 05:30N 46°43' W 091°58'0 0.1
2018-Apr-13 05:00N 46°43' W 091°58'0 0.0
2018-Apr-13 04:30N 46°43' W 091°58'0 0.1
2018-Apr-13 04:00N 46°43' W 091°58'0 0.9
2018-Apr-13 03:30N 46°43' W 091°58'611.7
2018-Apr-13 03:00N 46°46' W 091°50'612.7
2018-Apr-13 02:30N 46°49' W 091°42'612.7
2018-Apr-13 02:00N 46°52' W 091°34'335 8.6
2018-Apr-11 10:51N 45°43' W 083°40'712.9
2018-Apr-11 10:19N 45°37' W 083°34'412.9
2018-Apr-11 10:00N 45°34' W 083°31'612.8
2018-Apr-11 09:29N 45°28' W 083°25'  
2018-Apr-08 03:19N 45°12' W 074°18'411.5
2018-Apr-08 03:00N 45°14' W 074°13'6 9.1
2018-Apr-08 02:23N 45°13' W 074°05'3 8.6
2018-Apr-08 02:00N 45°14' W 074°01'4 8.7
2018-Apr-08 01:30N 45°17' W 073°56'2 2.4
2018-Apr-08 00:51N 45°18' W 073°55'1 1.6
2018-Apr-08 00:27N 45°19' W 073°55'0 0.7
2018-Apr-07 23:57N 45°19' W 073°55'0 0.7
2018-Apr-07 23:30N 45°20' W 073°55'4 7.3
2018-Apr-07 23:00N 45°22' W 073°50'5 9.8
2018-Apr-07 22:30N 45°24' W 073°45'3 6.3
2018-Apr-07 22:00N 45°25' W 073°40'3 5.6
2018-Apr-07 21:30N 45°24' W 073°36'2 3.2
2018-Apr-07 20:59N 45°24' W 073°34'  
Track history (hours):
 
Tides and Currents Weather Stations Pressure Air Temp Water Temp Dewpoint Dewpoint Depression Visibility Wind Speed Wind Dir Waves Ship Positions

Baie St.paul

Last reported at 2018-Apr-17 20:53 UTC. Time now 2018-Apr-19 11:51 UTC.
Position N 45°32' W 083°22'.

Length 225 m; draft 8.1 m.

Type: Cargo ship. MMSI: 316022391.

Date/timePositionNaut miles runAvg speedWind from/ knotsBaromVisibWave heightAir tempDewpointWater temp
2018-Apr-17 20:53N 45°32' W 083°22'612.5
2018-Apr-17 20:26N 45°36' W 083°28'612.5
2018-Apr-17 19:58N 45°41' W 083°33'  
2018-Apr-14 04:33N 46°58' W 091°37'1 6.7
2018-Apr-14 04:25N 46°58' W 091°38'3 7.4
2018-Apr-14 04:00N 46°56' W 091°42'4 8.1
2018-Apr-14 03:30N 46°53' W 091°46'4 8.0
2018-Apr-14 03:00N 46°50' W 091°50'4 7.9
2018-Apr-14 02:30N 46°47' W 091°54'4 7.4
2018-Apr-14 02:00N 46°44' W 091°58'3 6.3
2018-Apr-14 01:29N 46°42' W 092°01'0 0.6
2018-Apr-14 00:56N 46°42' W 092°01'0 0.0
2018-Apr-14 00:29N 46°42' W 092°01'0 0.0
2018-Apr-13 23:59N 46°42' W 092°01'0 0.0
2018-Apr-13 23:29N 46°42' W 092°01'0 0.0
2018-Apr-13 22:59N 46°42' W 092°01'0 0.0
2018-Apr-13 22:29N 46°42' W 092°01'0 0.0
2018-Apr-13 21:56N 46°42' W 092°01'0 0.0
2018-Apr-13 21:26N 46°42' W 092°01'0 0.0
2018-Apr-13 20:56N 46°42' W 092°01'0 0.0
2018-Apr-13 20:29N 46°42' W 092°01'0 0.0
2018-Apr-13 19:53N 46°42' W 092°01'0 0.0
2018-Apr-13 19:26N 46°42' W 092°01'0 0.0
2018-Apr-13 18:53N 46°42' W 092°01'0 0.0
2018-Apr-13 18:20N 46°42' W 092°01'0 0.0
2018-Apr-13 17:53N 46°42' W 092°01'0 0.0
2018-Apr-13 17:20N 46°42' W 092°01'0 0.0
2018-Apr-13 16:56N 46°42' W 092°01'0 0.0
2018-Apr-13 16:26N 46°42' W 092°01'0 0.0
2018-Apr-13 15:56N 46°42' W 092°01'0 0.0
2018-Apr-13 15:20N 46°42' W 092°01'0 0.0
2018-Apr-13 14:59N 46°42' W 092°01'0 0.8
2018-Apr-13 14:27N 46°42' W 092°01'2 4.1
2018-Apr-13 14:00N 46°43' W 091°59'0 0.6
2018-Apr-13 13:23N 46°43' W 091°59'0 0.0
2018-Apr-13 12:53N 46°43' W 091°59'0 0.0
2018-Apr-13 12:23N 46°43' W 091°59'0 0.0
2018-Apr-13 11:56N 46°43' W 091°59'0 0.0
2018-Apr-13 11:26N 46°43' W 091°59'0 0.0
2018-Apr-13 10:56N 46°43' W 091°59'0 0.1
2018-Apr-13 10:26N 46°43' W 091°58'0 0.0
2018-Apr-13 09:56N 46°43' W 091°58'0 0.1
2018-Apr-13 09:26N 46°43' W 091°58'0 0.0
2018-Apr-13 08:59N 46°43' W 091°58'0 0.1
2018-Apr-13 08:26N 46°43' W 091°58'0 0.1
2018-Apr-13 07:56N 46°43' W 091°59'0 0.2
2018-Apr-13 07:29N 46°43' W 091°58'0 0.4
2018-Apr-13 06:59N 46°43' W 091°58'0 0.3
2018-Apr-13 06:29N 46°43' W 091°58'0 0.1
2018-Apr-13 06:00N 46°43' W 091°58'0 0.1
2018-Apr-13 05:30N 46°43' W 091°58'0 0.1
2018-Apr-13 05:00N 46°43' W 091°58'0 0.0
2018-Apr-13 04:30N 46°43' W 091°58'0 0.1
2018-Apr-13 04:00N 46°43' W 091°58'0 0.9
2018-Apr-13 03:30N 46°43' W 091°58'611.7
2018-Apr-13 03:00N 46°46' W 091°50'612.7
2018-Apr-13 02:30N 46°49' W 091°42'612.7
2018-Apr-13 02:00N 46°52' W 091°34'335 8.6
2018-Apr-11 10:51N 45°43' W 083°40'712.9
2018-Apr-11 10:19N 45°37' W 083°34'412.9
2018-Apr-11 10:00N 45°34' W 083°31'612.8
2018-Apr-11 09:29N 45°28' W 083°25'  
2018-Apr-08 03:19N 45°12' W 074°18'411.5
2018-Apr-08 03:00N 45°14' W 074°13'6 9.1
2018-Apr-08 02:23N 45°13' W 074°05'3 8.6
2018-Apr-08 02:00N 45°14' W 074°01'4 8.7
2018-Apr-08 01:30N 45°17' W 073°56'2 2.4
2018-Apr-08 00:51N 45°18' W 073°55'1 1.6
2018-Apr-08 00:27N 45°19' W 073°55'0 0.7
2018-Apr-07 23:57N 45°19' W 073°55'0 0.7
2018-Apr-07 23:30N 45°20' W 073°55'4 7.3
2018-Apr-07 23:00N 45°22' W 073°50'5 9.8
2018-Apr-07 22:30N 45°24' W 073°45'3 6.3
2018-Apr-07 22:00N 45°25' W 073°40'3 5.6
2018-Apr-07 21:30N 45°24' W 073°36'2 3.2
2018-Apr-07 20:59N 45°24' W 073°34'  

Dump ship's entire track history